createdAt,value
2018-07-17T00:00:09.357Z,22.15
2018-07-17T00:02:38.561Z,21.68
2018-07-17T00:05:08.789Z,21.81
2018-07-17T00:07:38.122Z,21.55
2018-07-17T00:10:07.728Z,21.69
2018-07-17T00:12:37.128Z,21.73
2018-07-17T00:15:06.561Z,21.93
2018-07-17T00:17:35.949Z,21.92
2018-07-17T00:20:05.033Z,21.80
2018-07-17T00:22:34.133Z,21.81
2018-07-17T00:25:03.406Z,21.84
2018-07-17T00:27:32.544Z,21.89
2018-07-17T00:30:01.632Z,22.09
2018-07-17T00:32:30.719Z,21.78
2018-07-17T00:34:59.891Z,21.83
2018-07-17T00:37:28.986Z,22.07
2018-07-17T00:39:58.081Z,22.10
2018-07-17T00:42:27.169Z,21.60
2018-07-17T00:44:56.249Z,21.90
2018-07-17T00:47:25.321Z,21.90
2018-07-17T00:49:54.397Z,21.54
2018-07-17T00:52:23.485Z,21.75
2018-07-17T00:54:52.572Z,21.76
2018-07-17T00:57:21.662Z,21.57
2018-07-17T00:59:50.756Z,21.75
2018-07-17T01:02:25.108Z,21.56
2018-07-17T01:04:59.559Z,21.57
2018-07-17T01:07:34.033Z,21.66
2018-07-17T01:10:08.484Z,21.65
2018-07-17T01:12:36.721Z,21.65
2018-07-17T01:15:10.199Z,21.62
2018-07-17T01:17:39.713Z,21.38
2018-07-17T01:20:08.834Z,21.32
2018-07-17T01:22:37.945Z,21.54
2018-07-17T01:25:07.051Z,21.30
2018-07-17T01:27:36.152Z,21.25
2018-07-17T01:30:05.296Z,21.22
2018-07-17T01:32:34.373Z,21.33
2018-07-17T01:35:03.507Z,21.49
2018-07-17T01:37:32.593Z,21.25
2018-07-17T01:40:01.674Z,21.08
2018-07-17T01:42:30.774Z,20.95
2018-07-17T01:44:59.854Z,20.67
2018-07-17T01:47:28.941Z,20.93
2018-07-17T01:49:58.056Z,20.66
2018-07-17T01:52:27.153Z,20.32
2018-07-17T01:54:56.236Z,20.50
2018-07-17T01:57:25.337Z,20.57
2018-07-17T01:59:54.421Z,20.66
2018-07-17T02:02:23.520Z,20.60
2018-07-17T02:04:52.686Z,20.79
2018-07-17T02:07:21.717Z,20.88
2018-07-17T02:09:50.785Z,20.47
2018-07-17T02:12:19.890Z,20.82
2018-07-17T02:14:48.964Z,20.86
2018-07-17T02:17:18.501Z,20.64
2018-07-17T02:19:47.604Z,20.69
2018-07-17T02:22:16.701Z,20.60
2018-07-17T02:24:45.783Z,19.96
2018-07-17T02:27:14.869Z,20.22
2018-07-17T02:29:44.017Z,20.34
2018-07-17T02:32:13.105Z,20.32
2018-07-17T02:34:42.350Z,20.08
2018-07-17T02:37:11.453Z,20.41
2018-07-17T02:39:40.563Z,20.25
2018-07-17T02:42:09.756Z,19.82
2018-07-17T02:44:38.820Z,20.03
2018-07-17T02:47:07.905Z,19.78
2018-07-17T02:49:36.980Z,19.62
2018-07-17T02:52:06.113Z,19.82
2018-07-17T02:54:35.215Z,20.06
2018-07-17T02:57:04.304Z,19.85
2018-07-17T02:59:33.401Z,19.65
2018-07-17T03:02:09.162Z,19.63
2018-07-17T03:04:38.258Z,19.44
2018-07-17T03:07:07.483Z,19.52
2018-07-17T03:09:36.473Z,19.40
2018-07-17T03:12:06.125Z,19.63
2018-07-17T03:14:35.201Z,19.58
2018-07-17T03:17:04.285Z,19.53
2018-07-17T03:19:33.406Z,19.77
2018-07-17T03:22:02.522Z,19.78
2018-07-17T03:24:31.645Z,19.98
2018-07-17T03:27:00.705Z,19.84
2018-07-17T03:29:29.804Z,19.64
2018-07-17T03:31:58.906Z,19.60
2018-07-17T03:34:27.969Z,19.34
2018-07-17T03:36:57.109Z,19.34
2018-07-17T03:39:26.241Z,19.45
2018-07-17T03:41:55.335Z,19.66
2018-07-17T03:44:24.468Z,19.75
2018-07-17T03:46:53.566Z,19.98
2018-07-17T03:49:22.661Z,20.02
2018-07-17T03:51:51.751Z,19.82
2018-07-17T03:54:20.837Z,19.86
2018-07-17T03:56:49.977Z,20.01
2018-07-17T03:59:19.134Z,19.73
2018-07-17T04:01:48.217Z,19.87
2018-07-17T04:04:17.572Z,20.03
2018-07-17T04:06:46.672Z,20.22
2018-07-17T04:09:15.697Z,20.08
2018-07-17T04:11:44.785Z,20.07
2018-07-17T04:14:13.885Z,20.09
2018-07-17T04:16:52.361Z,20.09
2018-07-17T04:19:22.234Z,19.92
2018-07-17T04:21:52.324Z,20.07
2018-07-17T04:24:22.669Z,20.14
2018-07-17T04:26:52.178Z,20.04
2018-07-17T04:29:21.292Z,19.64
2018-07-17T04:31:50.464Z,19.86
2018-07-17T04:34:19.595Z,19.95
2018-07-17T04:36:48.730Z,19.65
2018-07-17T04:39:17.821Z,19.84
2018-07-17T04:41:46.913Z,19.77
2018-07-17T04:44:16.020Z,19.78
2018-07-17T04:46:45.110Z,19.82
2018-07-17T04:49:14.190Z,19.74
2018-07-17T04:51:43.264Z,20.02
2018-07-17T04:54:12.349Z,19.98
2018-07-17T04:56:41.467Z,20.00
2018-07-17T04:59:10.611Z,20.00
2018-07-17T05:01:39.809Z,20.05
2018-07-17T05:04:08.833Z,20.08
2018-07-17T05:06:37.913Z,20.08
2018-07-17T05:09:08.461Z,19.98
2018-07-17T05:11:37.577Z,20.15
2018-07-17T05:14:06.685Z,20.17
2018-07-17T05:16:35.784Z,20.07
2018-07-17T05:19:05.049Z,20.20
2018-07-17T05:21:34.218Z,20.18
2018-07-17T05:24:03.243Z,20.01
2018-07-17T05:26:32.353Z,20.03
2018-07-17T05:29:01.597Z,19.86
2018-07-17T05:31:30.641Z,20.12
2018-07-17T05:33:59.860Z,20.03
2018-07-17T05:36:29.038Z,20.08
2018-07-17T05:38:58.126Z,19.86
2018-07-17T05:41:27.217Z,20.15
2018-07-17T05:43:56.324Z,20.74
2018-07-17T05:46:25.488Z,21.48
2018-07-17T05:48:54.593Z,20.81
2018-07-17T05:51:23.681Z,20.66
2018-07-17T05:53:52.803Z,20.52
2018-07-17T05:56:21.965Z,20.50
2018-07-17T05:58:51.036Z,20.37
2018-07-17T06:01:20.125Z,20.59
2018-07-17T06:03:49.209Z,20.58
2018-07-17T06:06:18.313Z,20.53
2018-07-17T06:08:49.173Z,20.89
2018-07-17T06:11:18.261Z,20.88
2018-07-17T06:13:47.345Z,20.96
2018-07-17T06:16:16.563Z,20.94
2018-07-17T06:18:45.674Z,20.97
2018-07-17T06:21:14.793Z,20.74
2018-07-17T06:23:43.897Z,20.59
2018-07-17T06:26:13.005Z,20.83
2018-07-17T06:28:42.090Z,21.21
2018-07-17T06:31:11.227Z,20.95
2018-07-17T06:33:40.329Z,21.15
2018-07-17T06:36:09.498Z,21.23
2018-07-17T06:38:38.685Z,21.56
2018-07-17T06:41:07.781Z,21.58
2018-07-17T06:43:37.465Z,21.64
2018-07-17T06:46:06.646Z,21.94
2018-07-17T06:48:35.796Z,21.98
2018-07-17T06:51:04.889Z,22.27
2018-07-17T06:53:34.053Z,22.33
2018-07-17T06:56:03.133Z,22.30
2018-07-17T06:58:32.237Z,22.29
2018-07-17T07:01:01.319Z,22.45
2018-07-17T07:03:31.317Z,22.56
2018-07-17T07:06:00.418Z,22.60
2018-07-17T07:08:29.641Z,22.67
2018-07-17T07:10:58.869Z,23.03
2018-07-17T07:13:28.026Z,23.17
2018-07-17T07:15:57.157Z,23.51
2018-07-17T07:18:26.261Z,23.46
2018-07-17T07:20:55.361Z,23.81
2018-07-17T07:23:24.555Z,23.79
2018-07-17T07:25:53.629Z,24.00
2018-07-17T07:28:22.709Z,24.06
2018-07-17T07:30:53.075Z,24.98
2018-07-17T07:33:22.473Z,25.52
2018-07-17T07:35:51.603Z,25.23
2018-07-17T07:38:20.721Z,25.53
2018-07-17T07:40:50.776Z,25.70
2018-07-17T07:43:22.018Z,25.69
2018-07-17T07:45:51.117Z,25.57
2018-07-17T07:48:20.272Z,24.88
2018-07-17T07:50:49.466Z,25.12
2018-07-17T07:53:18.573Z,25.08
2018-07-17T07:55:47.800Z,25.75
2018-07-17T07:58:17.014Z,25.20
2018-07-17T08:00:46.169Z,25.80
2018-07-17T08:03:15.296Z,26.15
2018-07-17T08:05:44.417Z,25.88
2018-07-17T08:08:13.521Z,25.79
2018-07-17T08:10:42.734Z,25.77
2018-07-17T08:13:11.835Z,25.81
2018-07-17T08:15:40.929Z,25.94
2018-07-17T08:18:10.050Z,26.63
2018-07-17T08:20:39.141Z,27.17
2018-07-17T08:23:08.286Z,26.82
2018-07-17T08:25:37.397Z,27.46
2018-07-17T08:28:06.505Z,26.97
2018-07-17T08:30:35.631Z,26.77
2018-07-17T08:33:04.749Z,26.82
2018-07-17T08:35:33.851Z,26.84
2018-07-17T08:38:02.949Z,27.40
2018-07-17T08:40:32.059Z,27.41
2018-07-17T08:43:01.192Z,28.24
2018-07-17T08:45:30.334Z,27.58
2018-07-17T08:47:59.445Z,27.56
2018-07-17T08:50:28.553Z,27.29
2018-07-17T08:52:57.693Z,27.75
2018-07-17T08:55:26.841Z,27.87
2018-07-17T08:57:56.012Z,27.60
2018-07-17T09:00:25.203Z,27.78
2018-07-17T09:02:55.193Z,28.08
2018-07-17T09:05:24.325Z,28.04
2018-07-17T09:07:53.453Z,28.09
2018-07-17T09:10:22.549Z,29.00
2018-07-17T09:12:51.726Z,29.69
2018-07-17T09:15:20.924Z,30.05
2018-07-17T09:17:50.541Z,30.48
2018-07-17T09:20:19.853Z,30.77
2018-07-17T09:22:48.990Z,30.86
2018-07-17T09:25:18.238Z,31.18
2018-07-17T09:27:47.390Z,30.87
2018-07-17T09:30:16.557Z,31.00
2018-07-17T09:32:45.649Z,31.21
2018-07-17T09:35:15.141Z,30.58
2018-07-17T09:37:44.412Z,30.90
2018-07-17T09:40:13.566Z,30.76
2018-07-17T09:42:42.698Z,30.80
2018-07-17T09:45:11.801Z,30.10
2018-07-17T09:47:41.001Z,30.97
2018-07-17T09:50:10.141Z,30.65
2018-07-17T09:52:39.249Z,30.02
2018-07-17T09:55:08.391Z,30.68
2018-07-17T09:57:37.528Z,31.73
2018-07-17T10:00:06.676Z,31.42
2018-07-17T10:02:35.794Z,30.51
2018-07-17T10:05:04.933Z,29.17
2018-07-17T10:07:34.049Z,28.80
2018-07-17T10:10:03.167Z,28.23
2018-07-17T10:12:32.293Z,29.41
2018-07-17T10:15:01.409Z,30.78
2018-07-17T10:17:30.552Z,30.61
2018-07-17T10:19:59.836Z,31.11
2018-07-17T10:22:28.849Z,30.70
2018-07-17T10:24:57.953Z,30.56
2018-07-17T10:27:27.083Z,31.10
2018-07-17T10:29:56.209Z,31.85
2018-07-17T10:32:25.398Z,32.30
2018-07-17T10:34:54.685Z,31.62
2018-07-17T10:37:23.892Z,32.13
2018-07-17T10:39:53.000Z,31.29
2018-07-17T10:42:22.193Z,31.74
2018-07-17T10:44:51.341Z,31.68
2018-07-17T10:47:20.533Z,32.26
2018-07-17T10:49:49.713Z,31.39
2018-07-17T10:52:18.874Z,31.13
2018-07-17T10:54:48.100Z,30.99
2018-07-17T10:57:17.466Z,30.07
2018-07-17T10:59:46.654Z,30.37
2018-07-17T11:02:18.426Z,30.62
2018-07-17T11:04:47.591Z,30.67
2018-07-17T11:07:16.790Z,30.67
2018-07-17T11:09:45.949Z,30.06
2018-07-17T11:12:15.082Z,30.25
2018-07-17T11:14:44.229Z,29.97
2018-07-17T11:17:13.359Z,30.16
2018-07-17T11:19:42.497Z,30.43
2018-07-17T11:22:11.647Z,30.17
2018-07-17T11:24:40.761Z,30.18
2018-07-17T11:27:09.898Z,30.03
2018-07-17T11:29:39.029Z,30.77
2018-07-17T11:32:08.149Z,31.16
2018-07-17T11:34:37.265Z,30.44
2018-07-17T11:37:06.414Z,30.07
2018-07-17T11:39:35.517Z,31.06
2018-07-17T11:42:04.655Z,30.60
2018-07-17T11:44:33.836Z,31.25
2018-07-17T11:47:02.982Z,30.51
2018-07-17T11:49:32.138Z,29.95
2018-07-17T11:52:01.246Z,30.22
2018-07-17T11:54:30.402Z,29.96
2018-07-17T11:56:59.505Z,30.91
2018-07-17T11:59:28.667Z,30.68
2018-07-17T12:01:57.734Z,30.67
2018-07-17T12:04:26.846Z,30.88
2018-07-17T12:06:55.965Z,30.54
2018-07-17T12:09:25.070Z,30.79
2018-07-17T12:12:12.201Z,30.34
2018-07-17T12:14:41.297Z,30.18
2018-07-17T12:17:10.520Z,29.83
2018-07-17T12:19:39.654Z,29.75
2018-07-17T12:22:08.770Z,29.58
2018-07-17T12:24:37.918Z,29.52
2018-07-17T12:27:07.061Z,29.45
2018-07-17T12:29:36.170Z,29.38
2018-07-17T12:32:05.311Z,29.37
2018-07-17T12:34:35.577Z,29.47
2018-07-17T12:37:04.753Z,29.28
2018-07-17T12:39:33.865Z,29.52
2018-07-17T12:42:03.039Z,29.18
2018-07-17T12:44:32.189Z,28.93
2018-07-17T12:47:01.309Z,28.85
2018-07-17T12:49:30.410Z,28.91
2018-07-17T12:51:59.849Z,29.11
2018-07-17T12:54:28.989Z,29.24
2018-07-17T12:56:58.084Z,29.13
2018-07-17T12:59:27.220Z,29.04
2018-07-17T13:01:56.357Z,29.22
2018-07-17T13:04:25.491Z,29.33
2018-07-17T13:06:54.613Z,29.37
2018-07-17T13:09:23.905Z,29.20
2018-07-17T13:11:52.881Z,29.20
2018-07-17T13:14:22.203Z,29.14
2018-07-17T13:16:51.327Z,29.08
2018-07-17T13:19:20.486Z,28.77
2018-07-17T13:21:49.643Z,28.15
2018-07-17T13:24:18.829Z,27.96
2018-07-17T13:26:47.961Z,27.45
2018-07-17T13:29:17.077Z,27.02
2018-07-17T13:31:47.502Z,26.80
2018-07-17T13:34:16.721Z,26.85
2018-07-17T13:36:45.812Z,26.43
2018-07-17T13:39:15.050Z,26.38
2018-07-17T13:41:44.106Z,26.26
2018-07-17T13:44:13.222Z,26.23
2018-07-17T13:46:42.338Z,25.85
2018-07-17T13:49:11.449Z,25.95
2018-07-17T13:51:40.844Z,25.75
2018-07-17T13:54:10.025Z,25.29
2018-07-17T13:56:39.209Z,25.58
2018-07-17T13:59:08.369Z,25.37
2018-07-17T14:01:37.526Z,25.29
2018-07-17T14:04:06.714Z,25.47
2018-07-17T14:06:35.834Z,25.46
2018-07-17T14:09:07.326Z,25.90
2018-07-17T14:11:36.693Z,26.03
2018-07-17T14:14:05.864Z,25.67
2018-07-17T14:16:35.037Z,25.63
2018-07-17T14:19:04.220Z,25.65
2018-07-17T14:21:33.313Z,25.58
2018-07-17T14:24:02.441Z,25.59
2018-07-17T14:26:31.573Z,25.61
2018-07-17T14:29:04.189Z,25.65
2018-07-17T14:31:33.357Z,25.23
2018-07-17T14:34:02.453Z,25.10
2018-07-17T14:36:31.541Z,24.95
2018-07-17T14:39:00.657Z,25.21
2018-07-17T14:41:29.777Z,26.07
2018-07-17T14:43:58.904Z,26.12
2018-07-17T14:46:28.009Z,26.40
2018-07-17T14:48:57.129Z,26.23
2018-07-17T14:51:26.245Z,25.91
2018-07-17T14:53:55.352Z,25.93
2018-07-17T14:56:24.477Z,26.11
2018-07-17T14:58:53.574Z,26.68
2018-07-17T15:01:22.732Z,26.98
2018-07-17T15:03:51.841Z,26.76
2018-07-17T15:06:20.961Z,26.73
2018-07-17T15:08:50.052Z,27.11
2018-07-17T15:11:19.189Z,27.63
2018-07-17T15:13:48.289Z,27.60
2018-07-17T15:16:17.405Z,27.16
2018-07-17T15:18:48.709Z,27.11
2018-07-17T15:21:17.881Z,27.12
2018-07-17T15:23:46.985Z,27.09
2018-07-17T15:26:16.105Z,27.05
2018-07-17T15:28:45.219Z,26.77
2018-07-17T15:31:14.318Z,26.93
2018-07-17T15:33:43.465Z,27.11
2018-07-17T15:36:12.613Z,27.08
2018-07-17T15:38:41.747Z,27.19
2018-07-17T15:41:10.869Z,27.12
2018-07-17T15:43:40.006Z,27.03
2018-07-17T15:46:09.153Z,27.12
2018-07-17T15:48:38.289Z,27.00
2018-07-17T15:51:07.441Z,27.05
2018-07-17T15:53:36.556Z,27.46
2018-07-17T15:56:05.687Z,27.75
2018-07-17T15:58:34.819Z,27.75
2018-07-17T16:01:04.025Z,27.47
2018-07-17T16:03:33.153Z,27.35
2018-07-17T16:06:02.328Z,27.21
2018-07-17T16:08:31.505Z,27.29
2018-07-17T16:11:00.597Z,27.43
2018-07-17T16:13:29.843Z,27.42
2018-07-17T16:15:58.798Z,27.40
2018-07-17T16:18:27.900Z,27.51
2018-07-17T16:20:57.013Z,27.46
2018-07-17T16:23:26.092Z,27.42
2018-07-17T16:25:55.198Z,27.29
2018-07-17T16:28:24.278Z,27.36
2018-07-17T16:30:53.381Z,27.22
2018-07-17T16:33:22.480Z,27.22
2018-07-17T16:35:51.584Z,26.43
2018-07-17T16:38:20.710Z,25.41
2018-07-17T16:40:49.805Z,23.49
2018-07-17T16:43:18.897Z,22.74
2018-07-17T16:45:47.993Z,22.36
2018-07-17T16:48:17.095Z,22.01
2018-07-17T16:50:46.175Z,21.75
2018-07-17T16:53:15.267Z,21.59
2018-07-17T16:55:44.368Z,21.51
2018-07-17T16:58:13.464Z,21.27
2018-07-17T17:00:42.568Z,21.02
2018-07-17T17:03:11.653Z,21.03
2018-07-17T17:05:40.873Z,20.90
2018-07-17T17:08:10.069Z,20.87
2018-07-17T17:10:39.144Z,20.43
2018-07-17T17:13:08.228Z,20.75
2018-07-17T17:15:37.361Z,20.58
2018-07-17T17:18:06.464Z,20.35
2018-07-17T17:20:35.601Z,20.29
2018-07-17T17:23:04.849Z,20.71
2018-07-17T17:25:33.946Z,20.68
2018-07-17T17:28:03.021Z,20.52
2018-07-17T17:30:32.128Z,20.43
2018-07-17T17:33:01.218Z,20.64
2018-07-17T17:35:30.325Z,21.14
2018-07-17T17:37:59.417Z,21.21
2018-07-17T17:40:28.516Z,20.95
2018-07-17T17:42:57.581Z,21.41
2018-07-17T17:45:27.266Z,21.46
2018-07-17T17:47:56.289Z,21.56
2018-07-17T17:50:25.381Z,21.59
2018-07-17T17:52:54.469Z,21.70
2018-07-17T17:55:23.554Z,21.78
2018-07-17T17:57:52.637Z,21.64
2018-07-17T18:00:21.758Z,21.49
2018-07-17T18:02:50.846Z,21.33
2018-07-17T18:05:19.933Z,21.52
2018-07-17T18:07:49.066Z,21.19
2018-07-17T18:10:18.228Z,21.46
2018-07-17T18:12:47.369Z,21.51
2018-07-17T18:15:16.473Z,21.23
2018-07-17T18:17:45.566Z,21.59
2018-07-17T18:20:14.680Z,21.27
2018-07-17T18:22:43.823Z,21.50
2018-07-17T18:25:12.921Z,21.31
2018-07-17T18:27:42.017Z,21.32
2018-07-17T18:30:11.131Z,21.33
2018-07-17T18:32:40.201Z,21.33
2018-07-17T18:35:09.309Z,21.25
2018-07-17T18:37:38.473Z,21.58
2018-07-17T18:40:07.602Z,21.65
2018-07-17T18:42:36.784Z,21.32
2018-07-17T18:45:05.913Z,21.27
2018-07-17T18:47:35.212Z,21.45
2018-07-17T18:50:12.858Z,21.40
2018-07-17T18:52:33.501Z,21.61
2018-07-17T18:55:02.737Z,21.37
2018-07-17T18:57:31.818Z,21.34
2018-07-17T19:00:00.907Z,21.17
2018-07-17T19:02:30.000Z,21.30
2018-07-17T19:04:59.089Z,21.24
2018-07-17T19:07:28.165Z,21.16
2018-07-17T19:09:57.240Z,21.14
2018-07-17T19:12:26.474Z,21.13
2018-07-17T19:14:55.478Z,20.96
2018-07-17T19:17:24.570Z,20.74
2018-07-17T19:19:53.742Z,20.87
2018-07-17T19:22:22.969Z,20.83
2018-07-17T19:24:54.412Z,20.79
2018-07-17T19:27:23.641Z,20.93
2018-07-17T19:29:52.857Z,20.92
2018-07-17T19:32:22.102Z,20.88
2018-07-17T19:34:51.197Z,21.08
2018-07-17T19:37:20.542Z,21.10
2018-07-17T19:39:49.717Z,21.19
2018-07-17T19:42:18.847Z,20.97
2018-07-17T19:44:48.179Z,20.73
2018-07-17T19:47:17.481Z,20.80
2018-07-17T19:49:47.049Z,20.88
2018-07-17T19:52:16.347Z,20.88
2018-07-17T19:54:45.497Z,20.90
2018-07-17T19:57:14.801Z,20.88
2018-07-17T19:59:44.214Z,20.68
2018-07-17T20:02:13.735Z,20.59
2018-07-17T20:04:43.216Z,20.70
2018-07-17T20:07:12.716Z,20.57
2018-07-17T20:09:42.211Z,20.69
2018-07-17T20:12:17.106Z,20.45
2018-07-17T20:14:46.188Z,20.52
2018-07-17T20:17:15.310Z,20.42
2018-07-17T20:19:44.445Z,20.61
2018-07-17T20:22:13.582Z,20.43
2018-07-17T20:24:42.986Z,20.38
2018-07-17T20:27:12.135Z,20.26
2018-07-17T20:29:41.248Z,20.42
2018-07-17T20:32:10.421Z,20.36
2018-07-17T20:34:39.554Z,20.15
2018-07-17T20:37:08.698Z,20.25
2018-07-17T20:39:37.882Z,20.30
2018-07-17T20:42:06.998Z,20.39
2018-07-17T20:44:36.141Z,20.29
2018-07-17T20:47:05.252Z,20.04
2018-07-17T20:49:34.397Z,20.05
2018-07-17T20:52:03.628Z,20.26
2018-07-17T20:54:32.814Z,20.26
2018-07-17T20:57:01.905Z,20.13
2018-07-17T20:59:31.033Z,20.38
2018-07-17T21:02:00.121Z,20.41
2018-07-17T21:04:29.237Z,20.36
2018-07-17T21:06:58.337Z,20.35
2018-07-17T21:09:27.465Z,20.03
2018-07-17T21:11:56.561Z,19.58
2018-07-17T21:14:25.675Z,19.52
2018-07-17T21:16:54.790Z,19.76
2018-07-17T21:19:23.888Z,19.55
2018-07-17T21:21:53.129Z,19.73
2018-07-17T21:24:22.229Z,19.77
2018-07-17T21:26:51.341Z,19.57
2018-07-17T21:29:20.411Z,19.41
2018-07-17T21:31:49.502Z,19.62
2018-07-17T21:34:18.587Z,19.65
2018-07-17T21:36:47.745Z,19.72
2018-07-17T21:39:17.234Z,19.43
2018-07-17T21:41:46.321Z,19.45
2018-07-17T21:44:15.522Z,19.71
2018-07-17T21:46:44.608Z,19.64
2018-07-17T21:49:13.740Z,19.69
2018-07-17T21:51:42.808Z,19.79
2018-07-17T21:54:12.012Z,19.74
2018-07-17T21:56:41.086Z,19.80
2018-07-17T21:59:10.197Z,19.61
2018-07-17T22:01:39.285Z,19.76
2018-07-17T22:04:08.465Z,19.70
2018-07-17T22:06:37.577Z,19.65
2018-07-17T22:09:09.219Z,19.78
2018-07-17T22:11:38.485Z,19.71
2018-07-17T22:14:07.589Z,19.72
2018-07-17T22:16:36.678Z,19.85
2018-07-17T22:19:06.374Z,19.79
2018-07-17T22:21:35.496Z,19.57
2018-07-17T22:24:04.638Z,19.48
2018-07-17T22:26:33.750Z,19.27
2018-07-17T22:29:02.864Z,19.49
2018-07-17T22:31:31.956Z,19.28
2018-07-17T22:34:01.081Z,19.30
2018-07-17T22:36:30.161Z,19.23
2018-07-17T22:39:01.002Z,18.99
2018-07-17T22:41:30.085Z,19.12
2018-07-17T22:43:59.541Z,19.28
2018-07-17T22:46:28.669Z,19.04
2018-07-17T22:49:00.729Z,19.28
2018-07-17T22:51:30.100Z,19.28
2018-07-17T22:53:59.213Z,19.11
2018-07-17T22:56:28.305Z,19.21
2018-07-17T22:58:57.405Z,19.15
2018-07-17T23:01:26.600Z,19.11
2018-07-17T23:03:55.675Z,19.15
2018-07-17T23:06:25.077Z,19.13
2018-07-17T23:08:54.213Z,19.05
2018-07-17T23:11:23.901Z,18.95
2018-07-17T23:13:52.997Z,19.17
2018-07-17T23:16:22.129Z,18.87
2018-07-17T23:18:51.274Z,19.01
2018-07-17T23:21:20.394Z,19.09
2018-07-17T23:23:49.489Z,19.16
2018-07-17T23:26:18.629Z,19.16
2018-07-17T23:28:47.760Z,19.12
2018-07-17T23:31:16.869Z,19.20
2018-07-17T23:33:46.018Z,19.00
2018-07-17T23:36:15.105Z,19.01
2018-07-17T23:38:44.218Z,19.05
2018-07-17T23:41:13.334Z,18.74
2018-07-17T23:43:42.425Z,19.03
2018-07-17T23:46:11.538Z,19.06
2018-07-17T23:48:40.649Z,19.03
2018-07-17T23:51:09.745Z,18.83
2018-07-17T23:53:38.833Z,18.55
2018-07-17T23:56:08.013Z,18.67
2018-07-17T23:58:37.106Z,18.73
